Time;durP1;ratioP1;P1;durP2;ratioP2;P2;SDS_P1;SDS_P2;PMS_P1;PMS_P2;Temp;Humidity;BMP_temperature;BMP_pressure;BME280_temperature;BME280_humidity;BME280_pressure;Samples;Min_cycle;Max_cycle;Signal;HPM_P1;HPM_P2
2023/08/03 00:00:15;;;;;;;3.13;1.83;;;;;;;19.03;100.00;95288.13;4950692;28;102856;-63
2023/08/03 00:02:42;;;;;;;4.20;2.23;;;;;;;18.99;100.00;95279.94;4948988;28;105786;-63
2023/08/03 00:05:09;;;;;;;2.30;1.80;;;;;;;18.96;100.00;95282.50;4952840;28;101806;-63
2023/08/03 00:07:37;;;;;;;2.30;1.87;;;;;;;18.82;100.00;95304.31;4948767;28;105443;-63
2023/08/03 00:10:04;;;;;;;2.03;1.83;;;;;;;18.75;100.00;95303.25;4948977;28;102520;-64
2023/08/03 00:12:31;;;;;;;1.83;1.73;;;;;;;18.72;100.00;95306.59;4949361;28;105269;-64
2023/08/03 00:14:58;;;;;;;2.53;1.50;;;;;;;18.57;100.00;95326.00;4950059;28;103241;-63
2023/08/03 00:17:27;;;;;;;2.37;1.40;;;;;;;18.48;100.00;95322.59;4949270;28;102035;-63
2023/08/03 00:19:54;;;;;;;3.33;1.53;;;;;;;18.37;100.00;95324.84;4949302;28;105218;-63
2023/08/03 00:22:21;;;;;;;3.37;1.73;;;;;;;18.23;100.00;95326.97;4948280;28;105551;-63
2023/08/03 00:24:50;;;;;;;3.20;1.70;;;;;;;18.14;100.00;95328.13;4953608;28;101874;-63
2023/08/03 00:27:17;;;;;;;3.00;1.50;;;;;;;18.04;100.00;95347.28;4948539;28;105441;-63
2023/08/03 00:29:44;;;;;;;2.00;1.40;;;;;;;18.11;100.00;95337.63;4949091;28;102330;-63
2023/08/03 00:32:11;;;;;;;2.43;1.60;;;;;;;18.20;100.00;95332.97;4948951;28;105693;-63
2023/08/03 00:34:39;;;;;;;1.97;1.10;;;;;;;18.09;100.00;95312.91;4948252;28;105489;-63
2023/08/03 00:37:08;;;;;;;2.37;1.43;;;;;;;18.21;100.00;95329.16;4948938;28;101944;-63
2023/08/03 00:39:35;;;;;;;2.50;1.40;;;;;;;18.18;100.00;95329.81;4948891;28;105765;-63
2023/08/03 00:42:02;;;;;;;1.93;1.30;;;;;;;18.19;100.00;95330.59;4948256;28;105424;-63
2023/08/03 00:44:29;;;;;;;3.60;1.63;;;;;;;18.09;100.00;95339.81;4948769;28;102153;-63
2023/08/03 00:46:56;;;;;;;2.27;1.67;;;;;;;18.06;100.00;95340.47;4951720;28;105582;-63
2023/08/03 00:49:27;;;;;;;3.77;1.73;;;;;;;17.99;100.00;95342.84;4949004;28;101897;-63
2023/08/03 00:51:56;;;;;;;2.00;1.40;;;;;;;18.01;100.00;95331.78;4950237;28;102840;-63
2023/08/03 00:54:23;;;;;;;2.93;1.90;;;;;;;18.00;100.00;95336.41;4949520;28;102668;-63
2023/08/03 00:56:50;;;;;;;2.43;1.60;;;;;;;18.06;100.00;95331.59;4951945;28;101881;-63
2023/08/03 00:59:17;;;;;;;1.77;1.37;;;;;;;18.09;100.00;95333.66;4952184;28;105196;-63
2023/08/03 01:01:44;;;;;;;2.00;1.50;;;;;;;18.09;100.00;95334.44;4951575;28;104513;-63
2023/08/03 01:04:12;;;;;;;1.60;1.50;;;;;;;18.08;100.00;95332.06;4953565;28;102073;-63
2023/08/03 01:06:39;;;;;;;2.20;1.37;;;;;;;17.86;100.00;95335.00;4952049;28;105012;-63
2023/08/03 01:09:07;;;;;;;3.37;1.70;;;;;;;17.81;100.00;95335.16;4954812;28;104351;-63
2023/08/03 01:11:35;;;;;;;3.07;1.70;;;;;;;17.75;100.00;95329.19;4951924;28;105283;-63
2023/08/03 01:14:02;;;;;;;2.47;1.70;;;;;;;17.80;100.00;95344.34;4951304;28;105620;-63
2023/08/03 01:16:29;;;;;;;3.50;1.70;;;;;;;17.87;100.00;95336.59;4951985;28;102198;-63
2023/08/03 01:18:57;;;;;;;1.70;1.50;;;;;;;17.91;100.00;95340.19;4951957;28;105324;-63
2023/08/03 01:21:24;;;;;;;1.87;1.40;;;;;;;17.94;100.00;95340.34;4951031;28;105648;-63
2023/08/03 01:23:54;;;;;;;2.93;1.70;;;;;;;17.95;100.00;95333.88;4951899;28;102666;-63
2023/08/03 01:26:21;;;;;;;3.07;1.70;;;;;;;17.94;100.00;95326.13;4951811;28;105467;-63
2023/08/03 01:28:48;;;;;;;3.27;1.87;;;;;;;17.79;100.00;95323.94;4951012;28;105752;-63
2023/08/03 01:31:16;;;;;;;2.80;1.77;;;;;;;17.85;100.00;95328.03;4955077;28;102274;-63
2023/08/03 01:33:43;;;;;;;1.93;1.60;;;;;;;17.79;100.00;95330.13;4950922;28;104519;-63
2023/08/03 01:36:10;;;;;;;3.87;1.60;;;;;;;17.66;100.00;95338.38;4951522;28;102274;-63
2023/08/03 01:38:37;;;;;;;4.90;1.70;;;;;;;17.54;100.00;95322.13;4951632;28;105751;-63
2023/08/03 01:41:06;;;;;;;2.60;1.70;;;;;;;17.65;100.00;95323.38;4950989;28;105539;-63
2023/08/03 01:43:33;;;;;;;3.53;1.73;;;;;;;17.68;100.00;95331.56;4951617;28;101923;-63
2023/08/03 01:46:00;;;;;;;3.33;2.10;;;;;;;17.67;100.00;95331.88;4951460;28;105422;-63
2023/08/03 01:48:27;;;;;;;3.13;1.43;;;;;;;17.63;100.00;95336.31;4950830;28;105834;-63
2023/08/03 01:50:56;;;;;;;2.77;1.73;;;;;;;17.65;100.00;95329.50;4951358;28;102114;-63
2023/08/03 01:53:23;;;;;;;3.57;1.93;;;;;;;17.60;100.00;95337.75;4954225;28;105409;-63
2023/08/03 01:55:50;;;;;;;5.40;1.90;;;;;;;17.60;100.00;95326.22;4951572;28;102291;-63
2023/08/03 01:58:18;;;;;;;2.63;1.60;;;;;;;17.62;100.00;95324.00;4951338;28;105458;-63
2023/08/03 02:00:45;;;;;;;4.80;2.03;;;;;;;17.64;100.00;95319.06;4950870;28;105683;-63
2023/08/03 02:03:12;;;;;;;4.00;2.13;;;;;;;17.64;100.00;95319.88;4951263;28;101987;-63
2023/08/03 02:05:39;;;;;;;2.77;1.73;;;;;;;17.62;100.00;95313.25;4951171;28;105353;-63
2023/08/03 02:08:06;;;;;;;6.03;2.20;;;;;;;17.62;100.00;95305.16;4949167;28;105571;-63
2023/08/03 02:10:33;;;;;;;5.47;2.03;;;;;;;17.60;100.00;95304.72;4951101;28;101985;-63
2023/08/03 02:13:01;;;;;;;2.97;1.90;;;;;;;17.57;100.00;95305.34;4950987;28;105328;-63
2023/08/03 02:15:29;;;;;;;3.63;1.70;;;;;;;17.53;100.00;95296.31;4953529;28;102002;-63
2023/08/03 02:17:56;;;;;;;3.53;1.90;;;;;;;17.54;100.00;95303.31;4951014;28;105345;-63
2023/08/03 02:20:24;;;;;;;5.13;1.90;;;;;;;17.53;100.00;95301.72;4949819;28;105438;-63
2023/08/03 02:22:51;;;;;;;4.20;2.47;;;;;;;17.51;100.00;95306.63;4950974;28;102024;-63
2023/08/03 02:25:23;;;;;;;2.67;1.67;;;;;;;17.52;100.00;95298.25;4950984;28;105669;-63
2023/08/03 02:27:51;;;;;;;3.23;1.97;;;;;;;17.53;100.00;95296.31;4950205;28;106051;-63
2023/08/03 02:30:19;;;;;;;3.07;1.97;;;;;;;17.51;100.00;95303.94;4950796;28;101801;-63
2023/08/03 02:32:47;;;;;;;2.73;1.70;;;;;;;17.53;100.00;95305.19;4952138;28;102836;-63
2023/08/03 02:35:15;;;;;;;3.53;1.60;;;;;;;17.52;100.00;95297.44;4953518;28;105126;-63
2023/08/03 02:37:44;;;;;;;3.33;1.87;;;;;;;17.52;100.00;95286.69;4950741;28;105284;-63
2023/08/03 02:40:17;;;;;;;2.00;1.77;;;;;;;17.52;100.00;95290.19;4950187;28;105445;-63
2023/08/03 02:42:44;;;;;;;3.07;1.77;;;;;;;17.50;100.00;95291.59;4950641;28;102000;-63
2023/08/03 02:45:12;;;;;;;3.67;1.73;;;;;;;17.41;100.00;95280.06;4950638;28;105633;-63
2023/08/03 02:47:40;;;;;;;3.03;1.90;;;;;;;17.41;100.00;95280.88;4949832;28;105801;-63
2023/08/03 02:50:10;;;;;;;4.83;2.43;;;;;;;17.38;100.00;95292.25;4950447;28;101960;-63
2023/08/03 02:52:38;;;;;;;5.33;2.17;;;;;;;17.37;100.00;95284.47;4950295;28;105459;-63
2023/08/03 02:55:06;;;;;;;5.57;2.13;;;;;;;17.21;100.00;95283.38;4949927;28;104260;-63
2023/08/03 02:57:35;;;;;;;4.30;2.00;;;;;;;17.24;100.00;95296.19;4953859;28;101919;-63
2023/08/03 03:00:06;;;;;;;3.83;1.80;;;;;;;17.22;100.00;95309.16;4949740;28;103936;-63
2023/08/03 03:02:33;;;;;;;3.50;1.93;;;;;;;17.30;100.00;95311.03;4950167;28;102007;-63
2023/08/03 03:05:00;;;;;;;3.30;2.30;;;;;;;17.34;100.00;95312.00;4950498;28;105833;-63
2023/08/03 03:07:31;;;;;;;4.17;2.23;;;;;;;17.33;100.00;95311.19;4949759;28;104531;-64
2023/08/03 03:09:58;;;;;;;3.33;2.00;;;;;;;17.27;100.00;95301.72;4950305;28;102004;-63
2023/08/03 03:12:26;;;;;;;4.20;2.77;;;;;;;17.33;100.00;95305.06;4950247;28;105457;-63
2023/08/03 03:14:53;;;;;;;4.70;2.33;;;;;;;17.31;100.00;95315.31;4949582;28;105440;-63
2023/08/03 03:17:20;;;;;;;3.73;2.30;;;;;;;17.29;100.00;95330.97;4950049;28;101904;-63
2023/08/03 03:19:49;;;;;;;3.03;1.97;;;;;;;17.30;100.00;95333.34;4952703;28;105510;-63
2023/08/03 03:22:16;;;;;;;3.17;2.27;;;;;;;17.32;100.00;95328.44;4949859;28;102123;-63
2023/08/03 03:24:45;;;;;;;5.17;2.40;;;;;;;17.31;100.00;95328.75;4949887;28;105610;-63
2023/08/03 03:27:12;;;;;;;3.83;1.93;;;;;;;17.34;100.00;95328.13;4949188;28;105541;-63
2023/08/03 03:29:48;;;;;;;4.90;2.00;;;;;;;17.35;100.00;95322.44;4949924;28;102124;-63
2023/08/03 03:32:15;;;;;;;4.40;2.00;;;;;;;17.35;100.00;95324.31;4949657;28;105376;-63
2023/08/03 03:34:42;;;;;;;2.87;2.07;;;;;;;17.31;100.00;95324.16;4949040;28;105758;-63
2023/08/03 03:37:12;;;;;;;5.93;2.63;;;;;;;17.30;100.00;95333.34;4949809;28;102270;-63
2023/08/03 03:39:40;;;;;;;3.33;2.00;;;;;;;17.33;100.00;95329.22;4950121;28;105703;-63
2023/08/03 03:42:13;;;;;;;2.40;1.80;;;;;;;17.35;100.00;95335.06;4952656;28;105483;-63
2023/08/03 03:44:40;;;;;;;4.73;2.23;;;;;;;17.37;100.00;95327.47;4949613;28;104544;-63
2023/08/03 03:47:08;;;;;;;3.87;2.07;;;;;;;17.30;100.00;95343.28;4949002;28;105567;-63
2023/08/03 03:49:39;;;;;;;4.77;2.00;;;;;;;17.31;100.00;95342.19;4949655;28;102086;-63
2023/08/03 03:52:07;;;;;;;2.97;1.83;;;;;;;17.33;100.00;95354.19;4949444;28;105386;-63
2023/08/03 03:54:36;;;;;;;4.20;2.20;;;;;;;17.34;100.00;95349.63;4948909;28;105246;-63
2023/08/03 03:57:07;;;;;;;3.13;1.80;;;;;;;17.35;100.00;95360.06;4949433;28;102263;-63
2023/08/03 03:59:37;;;;;;;5.10;2.17;;;;;;;17.32;100.00;95351.81;4949575;28;105450;-64
2023/08/03 04:02:04;;;;;;;2.87;2.13;;;;;;;17.31;100.00;95361.78;4949572;28;105757;-65
2023/08/03 04:04:31;;;;;;;3.53;2.63;;;;;;;17.30;100.00;95348.66;4953437;28;101932;-65
2023/08/03 04:06:58;;;;;;;4.63;2.70;;;;;;;17.26;100.00;95353.88;4949694;28;105513;-65
2023/08/03 04:09:25;;;;;;;3.17;2.57;;;;;;;17.29;100.00;95360.53;4950201;28;102141;-64
2023/08/03 04:11:52;;;;;;;4.27;2.50;;;;;;;17.27;100.00;95366.22;4950249;28;105301;-65
2023/08/03 04:14:19;;;;;;;7.00;3.50;;;;;;;17.26;100.00;95364.63;4949482;28;105710;-65
2023/08/03 04:16:48;;;;;;;5.57;3.50;;;;;;;17.31;100.00;95361.78;4950050;28;102177;-64
2023/08/03 04:19:16;;;;;;;4.87;3.17;;;;;;;17.34;100.00;95360.38;4950083;28;103872;-64
2023/08/03 04:21:43;;;;;;;5.10;2.80;;;;;;;17.37;100.00;95351.66;4948818;28;105573;-64
2023/08/03 04:24:10;;;;;;;4.00;2.40;;;;;;;17.35;100.00;95345.81;4953287;28;101989;-64
2023/08/03 04:26:37;;;;;;;5.00;2.53;;;;;;;17.31;100.00;95355.63;4949342;28;105380;-64
2023/08/03 04:29:09;;;;;;;4.93;2.53;;;;;;;17.33;100.00;95356.09;4949400;28;102048;-63
2023/08/03 04:31:36;;;;;;;4.17;2.70;;;;;;;17.34;100.00;95350.38;4949120;28;105908;-63
2023/08/03 04:34:06;;;;;;;3.80;2.20;;;;;;;17.34;100.00;95355.00;4949117;28;105663;-63
2023/08/03 04:36:34;;;;;;;3.70;2.10;;;;;;;17.35;100.00;95359.25;4949984;28;102266;-63
2023/08/03 04:39:01;;;;;;;4.33;1.87;;;;;;;17.36;100.00;95358.94;4949773;28;104211;-63
2023/08/03 04:41:30;;;;;;;3.10;1.80;;;;;;;17.38;100.00;95359.44;4949088;28;105294;-64
2023/08/03 04:43:57;;;;;;;2.40;1.87;;;;;;;17.36;100.00;95367.00;4949684;28;101987;-70
2023/08/03 04:46:29;;;;;;;3.17;2.30;;;;;;;17.35;100.00;95367.31;4963970;28;104414;-64
2023/08/03 04:48:56;;;;;;;3.97;2.07;;;;;;;17.40;100.00;95373.38;4969099;28;101895;-65
2023/08/03 04:51:26;;;;;;;4.10;1.87;;;;;;;17.42;100.00;95379.22;4969313;28;105273;-69
2023/08/03 04:53:53;;;;;;;2.97;1.70;;;;;;;17.50;100.00;95374.94;4968581;28;105145;-64
2023/08/03 04:56:24;;;;;;;2.57;1.93;;;;;;;17.54;100.00;95382.03;4969110;28;102182;-64
2023/08/03 04:58:51;;;;;;;3.10;2.00;;;;;;;17.48;100.00;95385.19;4969187;28;105463;-64
2023/08/03 05:01:18;;;;;;;2.20;1.80;;;;;;;17.44;100.00;95370.84;4968481;28;105287;-64
2023/08/03 05:03:46;;;;;;;3.40;1.70;;;;;;;17.47;100.00;95389.00;4969079;28;101980;-64
2023/08/03 05:06:13;;;;;;;3.50;1.60;;;;;;;17.55;100.00;95388.22;4969156;28;105422;-64
2023/08/03 05:08:42;;;;;;;2.73;1.70;;;;;;;17.68;100.00;95385.34;4971897;28;105577;-65
2023/08/03 05:11:09;;;;;;;4.60;2.27;;;;;;;17.98;100.00;95380.88;4969093;28;104150;-65
2023/08/03 05:13:40;;;;;;;3.17;1.87;;;;;;;18.05;100.00;95379.22;4968072;28;103853;-65
2023/08/03 05:16:07;;;;;;;2.20;1.47;;;;;;;18.21;100.00;95372.22;4968910;28;101995;-65
2023/08/03 05:18:34;;;;;;;4.27;1.80;;;;;;;18.37;100.00;95377.91;4968915;28;105347;-65
2023/08/03 05:21:01;;;;;;;3.87;2.13;;;;;;;18.38;100.00;95368.72;4967842;28;105759;-65
2023/08/03 05:23:28;;;;;;;2.73;1.60;;;;;;;18.46;100.00;95375.94;4968642;28;102017;-65
2023/08/03 05:25:57;;;;;;;3.30;2.00;;;;;;;18.63;100.00;95381.28;4968898;28;104743;-64
2023/08/03 05:28:25;;;;;;;3.03;1.77;;;;;;;18.37;100.00;95373.28;4967706;28;105456;-65
2023/08/03 05:30:52;;;;;;;2.53;1.80;;;;;;;18.54;100.00;95372.44;4972022;28;101884;-65
2023/08/03 05:33:19;;;;;;;3.10;1.83;;;;;;;18.74;100.00;95377.88;4967770;28;105686;-65
2023/08/03 05:35:48;;;;;;;3.03;1.70;;;;;;;18.79;100.00;95368.78;4968468;28;102027;-65
2023/08/03 05:38:15;;;;;;;2.10;1.93;;;;;;;18.70;100.00;95365.38;4968579;28;105240;-65
2023/08/03 05:40:43;;;;;;;1.60;1.50;;;;;;;18.76;100.00;95364.88;4967851;28;105994;-65
2023/08/03 05:43:15;;;;;;;1.80;1.60;;;;;;;18.82;100.00;95363.56;4971142;28;102076;-65
2023/08/03 05:45:44;;;;;;;3.40;1.97;;;;;;;18.96;100.00;95363.31;4978684;28;102574;-65
2023/08/03 05:48:16;;;;;;;2.00;1.50;;;;;;;18.75;100.00;95368.66;4990994;28;105875;-64
2023/08/03 05:50:46;;;;;;;2.10;1.73;;;;;;;18.88;100.00;95372.25;4991556;28;101884;-65
2023/08/03 05:53:13;;;;;;;4.20;1.57;;;;;;;18.98;100.00;95363.78;4995418;28;102362;-65
2023/08/03 05:55:41;;;;;;;3.17;1.60;;;;;;;19.16;100.00;95368.72;4992842;28;101844;-65
2023/08/03 05:58:10;;;;;;;2.20;1.67;;;;;;;19.20;100.00;95353.47;4991277;28;105456;-65
2023/08/03 06:00:41;;;;;;;2.83;1.80;;;;;;;19.20;100.00;95358.06;4991429;28;102895;-65
2023/08/03 06:03:13;;;;;;;3.23;1.73;;;;;;;19.25;100.00;95366.00;4990784;28;101911;-65
2023/08/03 06:05:44;;;;;;;1.97;1.70;;;;;;;19.13;100.00;95365.91;4990721;28;106008;-64
2023/08/03 06:08:15;;;;;;;1.60;1.50;;;;;;;18.96;100.00;95366.78;4990064;28;105604;-65
2023/08/03 06:10:43;;;;;;;3.53;1.73;;;;;;;18.84;100.00;95372.09;4991737;28;101950;-64
2023/08/03 06:13:11;;;;;;;2.27;2.03;;;;;;;18.75;100.00;95378.66;4990388;28;105527;-64
2023/08/03 06:15:41;;;;;;;2.97;1.90;;;;;;;18.94;100.00;95390.59;4993268;28;104899;-65
2023/08/03 06:18:11;;;;;;;1.63;1.47;;;;;;;19.03;100.00;95395.91;4991972;28;102717;-65
2023/08/03 06:20:41;;;;;;;2.47;1.63;;;;;;;19.03;100.00;95398.63;4972735;28;106882;-64
2023/08/03 06:23:12;;;;;;;1.60;1.50;;;;;;;18.87;100.00;95400.31;4991650;28;101960;-65
2023/08/03 06:25:39;;;;;;;2.20;2.00;;;;;;;18.82;100.00;95395.91;4990222;28;105749;-64
2023/08/03 06:28:09;;;;;;;1.93;1.73;;;;;;;18.84;100.00;95399.03;4989438;28;105835;-65
2023/08/03 06:30:37;;;;;;;1.83;1.73;;;;;;;19.06;100.00;95416.81;4990390;28;102131;-64
2023/08/03 06:33:05;;;;;;;2.83;1.70;;;;;;;19.22;100.00;95420.53;4990173;28;104049;-64
2023/08/03 06:35:37;;;;;;;2.03;1.57;;;;;;;19.29;100.00;95404.66;4992962;28;105367;-65
2023/08/03 06:38:04;;;;;;;1.60;1.50;;;;;;;19.32;100.00;95409.38;4990196;28;105318;-65
2023/08/03 06:40:32;;;;;;;2.00;1.60;;;;;;;19.11;100.00;95416.63;4990624;28;103133;-64
2023/08/03 06:42:59;;;;;;;2.60;1.50;;;;;;;18.97;100.00;95408.00;4990067;28;102061;-64
2023/08/03 06:45:26;;;;;;;2.33;1.60;;;;;;;18.79;100.00;95410.00;4990044;28;105254;-64
2023/08/03 06:47:53;;;;;;;2.53;1.77;;;;;;;19.03;100.00;95425.56;4989424;28;105833;-64
2023/08/03 06:50:22;;;;;;;5.17;1.50;;;;;;;18.68;100.00;95411.50;4990000;28;102064;-64
2023/08/03 06:52:51;;;;;;;3.40;1.47;;;;;;;18.61;100.00;95426.56;4989108;28;104194;-64
2023/08/03 06:55:18;;;;;;;2.87;1.70;;;;;;;18.69;100.00;95436.53;4989020;28;105684;-64
2023/08/03 06:57:45;;;;;;;3.10;1.50;;;;;;;18.78;100.00;95438.06;4993262;28;101935;-64
2023/08/03 07:00:14;;;;;;;2.63;1.60;;;;;;;18.48;100.00;95428.34;4989105;28;105220;-64
2023/08/03 07:02:41;;;;;;;2.13;1.50;;;;;;;18.64;100.00;95432.09;4989741;28;102009;-65
2023/08/03 07:05:08;;;;;;;2.43;1.60;;;;;;;18.65;100.00;95430.97;4989773;28;105489;-64
2023/08/03 07:07:37;;;;;;;3.07;1.80;;;;;;;18.51;100.00;95445.78;4989012;28;105135;-64
2023/08/03 07:10:05;;;;;;;2.47;1.67;;;;;;;18.35;100.00;95440.13;4989506;28;102124;-64
2023/08/03 07:12:33;;;;;;;4.30;1.80;;;;;;;18.35;100.00;95445.50;4989588;28;105317;-64
2023/08/03 07:15:00;;;;;;;2.20;1.47;;;;;;;18.42;100.00;95436.94;4990345;28;103076;-64
2023/08/03 07:17:27;;;;;;;4.37;1.73;;;;;;;18.40;100.00;95431.88;4989715;28;101985;-64
2023/08/03 07:19:54;;;;;;;3.40;1.53;;;;;;;18.44;100.00;95430.13;4993417;28;102834;-64
2023/08/03 07:22:22;;;;;;;4.47;1.87;;;;;;;18.47;100.00;95432.16;4989067;28;101917;-64
2023/08/03 07:24:50;;;;;;;3.10;1.70;;;;;;;18.62;100.00;95430.84;4989394;28;105254;-64
2023/08/03 07:27:17;;;;;;;3.20;1.50;;;;;;;18.75;100.00;95437.91;4988814;28;105371;-64
2023/08/03 07:29:45;;;;;;;2.47;1.30;;;;;;;18.96;100.00;95433.38;4989366;28;102199;-64
2023/08/03 07:32:12;;;;;;;2.07;1.43;;;;;;;19.00;100.00;95443.16;4989376;28;105273;-64
2023/08/03 07:34:39;;;;;;;2.90;1.67;;;;;;;18.98;100.00;95447.31;4988576;28;105488;-64
2023/08/03 07:37:08;;;;;;;3.03;1.70;;;;;;;18.99;100.00;95443.50;4989180;28;101961;-64
2023/08/03 07:39:35;;;;;;;3.80;1.63;;;;;;;18.98;100.00;95455.38;4989139;28;104586;-64
2023/08/03 07:42:03;;;;;;;2.90;1.60;;;;;;;19.05;100.00;95458.34;4991985;28;106043;-65
2023/08/03 07:44:30;;;;;;;4.40;1.77;;;;;;;18.71;100.00;95459.34;4989255;28;105389;-64
2023/08/03 07:46:57;;;;;;;2.40;1.50;;;;;;;18.70;100.00;95459.66;4988465;28;104302;-64
2023/08/03 07:49:24;;;;;;;5.07;1.87;;;;;;;18.83;100.00;95456.72;4988961;28;102025;-64
2023/08/03 07:51:51;;;;;;;3.40;1.50;;;;;;;19.04;100.00;95456.78;4988922;28;105698;-64
2023/08/03 07:54:18;;;;;;;3.23;1.60;;;;;;;19.13;100.00;95446.75;4988222;28;105948;-64
2023/08/03 07:56:45;;;;;;;6.40;1.60;;;;;;;19.42;100.00;95457.53;4990275;28;101928;-64
2023/08/03 07:59:13;;;;;;;2.93;1.77;;;;;;;19.44;100.00;95455.28;4988852;28;105705;-64
2023/08/03 08:01:43;;;;;;;2.90;1.70;;;;;;;19.34;100.00;95444.91;4989556;28;103187;-64
2023/08/03 08:04:10;;;;;;;4.00;1.80;;;;;;;19.46;100.00;95443.03;4992147;28;101979;-64
2023/08/03 08:06:37;;;;;;;3.33;1.40;;;;;;;19.59;100.00;95455.50;4988331;28;105826;-64
2023/08/03 08:09:04;;;;;;;4.97;1.50;;;;;;;19.62;100.00;95472.94;4988671;28;102075;-64
2023/08/03 08:11:31;;;;;;;6.20;1.90;;;;;;;19.79;100.00;95475.50;4990008;28;102949;-64
2023/08/03 08:13:59;;;;;;;3.10;1.80;;;;;;;19.77;100.00;95464.22;4988091;28;104535;-64
2023/08/03 08:16:27;;;;;;;3.17;1.80;;;;;;;19.77;100.00;95464.22;4988743;28;102063;-63
2023/08/03 08:18:54;;;;;;;5.60;1.80;;;;;;;19.87;100.00;95474.63;4988751;28;105204;-64
2023/08/03 08:21:21;;;;;;;2.73;1.80;;;;;;;19.77;100.00;95469.59;4988868;28;102617;-63
2023/08/03 08:23:48;;;;;;;1.90;1.60;;;;;;;19.80;100.00;95468.97;4990035;28;102026;-63
2023/08/03 08:26:15;;;;;;;3.10;1.70;;;;;;;19.73;100.00;95469.47;4991505;28;105524;-63
2023/08/03 08:28:44;;;;;;;3.87;1.90;;;;;;;19.81;100.00;95484.03;4988333;28;102011;-63
2023/08/03 08:31:11;;;;;;;4.97;1.90;;;;;;;19.83;100.00;95493.38;4988277;28;104918;-63
2023/08/03 08:33:40;;;;;;;4.67;2.30;;;;;;;19.86;100.00;95489.22;4987847;28;105417;-63
2023/08/03 08:36:06;;;;;;;4.43;1.73;;;;;;;19.87;100.00;95497.00;4988226;28;102051;-63
2023/08/03 08:38:33;;;;;;;3.33;1.53;;;;;;;19.90;100.00;95488.22;4988415;28;105360;-63
2023/08/03 08:41:02;;;;;;;3.50;1.70;;;;;;;20.08;100.00;95491.59;4987677;28;105757;-63
2023/08/03 08:43:29;;;;;;;4.50;1.60;;;;;;;20.20;100.00;95494.34;4988417;28;101912;-63
2023/08/03 08:45:57;;;;;;;3.07;1.63;;;;;;;20.20;100.00;95486.25;4991197;28;105521;-63
2023/08/03 08:48:24;;;;;;;4.47;1.80;;;;;;;20.23;100.00;95491.78;4988386;28;101841;-63
2023/08/03 08:50:54;;;;;;;5.00;1.80;;;;;;;20.29;100.00;95498.56;4988152;28;105764;-63
2023/08/03 08:53:21;;;;;;;5.70;1.90;;;;;;;20.30;100.00;95488.53;4987527;28;105860;-63
2023/08/03 08:55:51;;;;;;;1.83;1.40;;;;;;;20.36;100.00;95492.59;4988134;28;102091;-63
2023/08/03 08:58:19;;;;;;;4.43;1.87;;;;;;;20.51;100.00;95489.28;4988175;28;105963;-63
2023/08/03 09:00:48;;;;;;;3.10;1.50;;;;;;;20.62;100.00;95495.81;4987496;28;105733;-64
2023/08/03 09:03:17;;;;;;;2.83;1.67;;;;;;;20.69;100.00;95501.47;4988091;28;101952;-63
2023/08/03 09:05:43;;;;;;;3.60;1.70;;;;;;;20.93;100.00;95493.44;4989107;28;102629;-63
2023/08/03 09:08:14;;;;;;;3.93;1.60;;;;;;;20.90;100.00;95497.59;4991017;28;105505;-63
2023/08/03 09:10:51;;;;;;;3.97;1.57;;;;;;;21.00;100.00;95483.66;4987966;28;105952;-63
2023/08/03 09:13:29;;;;;;;3.13;1.37;;;;;;;21.08;100.00;95481.97;4987311;28;105342;-63
2023/08/03 09:15:57;;;;;;;3.43;1.53;;;;;;;21.06;100.00;95486.91;4989638;28;101984;-63
2023/08/03 09:18:27;;;;;;;3.40;1.30;;;;;;;20.87;100.00;95498.22;4991428;28;105402;-63
2023/08/03 09:21:08;;;;;;;4.43;1.70;;;;;;;20.63;100.00;95500.91;4989926;28;105395;-63
2023/08/03 09:23:36;;;;;;;3.73;1.60;;;;;;;20.60;100.00;95498.84;4991371;28;101994;-63
2023/08/03 09:26:04;;;;;;;3.50;1.40;;;;;;;20.77;100.00;95497.88;4991270;28;105245;-63
2023/08/03 09:28:35;;;;;;;3.67;1.43;;;;;;;20.45;100.00;95498.72;4990341;28;103829;-63
2023/08/03 09:31:02;;;;;;;3.77;1.50;;;;;;;20.44;100.00;95502.53;4994632;28;102038;-63
2023/08/03 09:33:29;;;;;;;3.33;1.40;;;;;;;20.37;100.00;95505.78;4990391;28;105447;-63
2023/08/03 09:36:04;;;;;;;3.53;1.40;;;;;;;20.20;100.00;95511.34;4991005;28;102045;-63
2023/08/03 09:38:31;;;;;;;2.20;1.40;;;;;;;20.24;100.00;95522.28;4991119;28;103812;-63
2023/08/03 09:41:00;;;;;;;4.37;1.67;;;;;;;20.66;100.00;95518.34;4990610;28;105128;-63
2023/08/03 09:43:28;;;;;;;3.37;1.30;;;;;;;20.33;100.00;95518.34;4990941;28;101983;-63
2023/08/03 09:45:56;;;;;;;1.93;1.40;;;;;;;20.10;100.00;95516.38;4990716;28;105273;-63
2023/08/03 09:48:24;;;;;;;2.90;1.43;;;;;;;19.90;100.00;95522.53;4990222;28;106091;-63
2023/08/03 09:50:53;;;;;;;3.57;1.80;;;;;;;20.39;100.00;95525.13;4990990;28;102119;-63
2023/08/03 09:53:22;;;;;;;2.53;1.63;;;;;;;20.55;100.00;95522.59;4993920;28;105365;-63
2023/08/03 09:55:58;;;;;;;4.83;1.70;;;;;;;20.38;100.00;95520.09;4990793;28;102133;-63
2023/08/03 09:58:32;;;;;;;3.07;1.60;;;;;;;20.48;100.00;95516.97;4992131;28;101869;-63
2023/08/03 10:01:02;;;;;;;3.47;1.57;;;;;;;20.47;100.00;95520.78;4990328;28;104625;-63
2023/08/03 10:03:32;;;;;;;2.47;1.97;;;;;;;20.55;100.00;95514.50;4990602;28;102200;-63
2023/08/03 10:06:08;;;;;;;2.43;1.70;;;;;;;20.20;100.00;95519.44;4990506;28;105787;-63
2023/08/03 10:08:41;;;;;;;2.13;1.33;;;;;;;20.13;100.00;95513.00;4991517;28;103061;-63
2023/08/03 10:11:12;;;;;;;2.03;1.50;;;;;;;20.23;100.00;95520.69;4990513;28;102021;-63
2023/08/03 10:13:43;;;;;;;4.77;1.50;;;;;;;20.56;100.00;95514.19;4991946;28;102706;-63
2023/08/03 10:16:10;;;;;;;1.73;1.40;;;;;;;20.56;100.00;95508.78;4993299;28;105321;-63
2023/08/03 10:18:38;;;;;;;3.17;1.57;;;;;;;20.45;100.00;95518.41;4990328;28;105752;-63
2023/08/03 10:21:06;;;;;;;7.40;1.77;;;;;;;20.31;100.00;95517.13;4989247;28;104023;-63
2023/08/03 10:23:35;;;;;;;2.80;1.33;;;;;;;20.45;100.00;95517.63;4991717;28;101811;-63
2023/08/03 10:26:03;;;;;;;4.40;1.20;;;;;;;20.30;100.00;95513.63;4991638;28;102543;-63
2023/08/03 10:28:46;;;;;;;2.83;1.50;;;;;;;20.06;100.00;95518.13;4988384;28;105109;-63
2023/08/03 10:31:14;;;;;;;5.63;1.37;;;;;;;20.22;100.00;95513.72;4990294;28;101946;-63
2023/08/03 10:34:08;;;;;;;2.40;1.30;;;;;;;20.41;100.00;95522.09;4990036;28;105523;-63
2023/08/03 10:36:43;;;;;;;3.03;1.47;;;;;;;20.58;100.00;95519.22;4989616;28;103993;-63
2023/08/03 10:39:13;;;;;;;3.07;1.70;;;;;;;20.63;100.00;95519.00;4977150;28;102027;-63
2023/08/03 10:41:42;;;;;;;2.50;1.40;;;;;;;20.74;100.00;95520.16;4991135;28;102777;-63
2023/08/03 10:44:34;;;;;;;4.00;1.40;;;;;;;20.65;100.00;95530.28;4991459;28;101957;-63
2023/08/03 10:47:01;;;;;;;2.40;1.50;;;;;;;20.51;100.00;95540.59;4975488;28;105402;-63
2023/08/03 10:49:48;;;;;;;2.43;1.50;;;;;;;20.45;100.00;95540.03;4990864;28;103154;-63
2023/08/03 10:52:17;;;;;;;2.37;1.80;;;;;;;20.63;100.00;95536.03;4991318;28;101836;-63
2023/08/03 10:54:45;;;;;;;3.27;1.97;;;;;;;20.56;100.00;95530.38;4989782;28;105514;-63
2023/08/03 10:57:14;;;;;;;2.87;1.40;;;;;;;20.06;100.00;95531.63;4989356;28;105516;-63
2023/08/03 10:59:44;;;;;;;2.83;1.57;;;;;;;20.40;100.00;95539.44;4993176;28;102081;-63
2023/08/03 11:02:13;;;;;;;2.70;1.37;;;;;;;20.45;100.00;95545.44;4990413;28;103107;-63
2023/08/03 11:04:40;;;;;;;3.47;1.73;;;;;;;20.57;100.00;95542.75;4990961;28;101893;-63
2023/08/03 11:07:09;;;;;;;3.07;1.60;;;;;;;20.39;100.00;95543.25;4989715;28;104850;-63
2023/08/03 11:09:36;;;;;;;2.93;1.40;;;;;;;20.47;100.00;95547.78;4988926;28;106101;-63
2023/08/03 11:12:04;;;;;;;1.60;1.20;;;;;;;20.55;100.00;95539.59;4989783;28;101981;-63
2023/08/03 11:14:31;;;;;;;2.30;1.40;;;;;;;20.59;100.00;95550.53;4990845;28;102675;-63
2023/08/03 11:17:00;;;;;;;2.13;1.70;;;;;;;20.46;100.00;95551.59;4988844;28;105462;-63
2023/08/03 11:19:32;;;;;;;3.33;1.50;;;;;;;20.73;100.00;95551.00;4989448;28;102343;-63
2023/08/03 11:22:01;;;;;;;1.70;1.20;;;;;;;20.57;100.00;95539.25;4992180;28;105697;-63